Time;durP1;ratioP1;P1;durP2;ratioP2;P2;SDS_P1;SDS_P2;PMS_P1;PMS_P2;Temp;Humidity;BMP_temperature;BMP_pressure;BME280_temperature;BME280_humidity;BME280_pressure;Samples;Min_cycle;Max_cycle;Signal;HPM_P1;HPM_P2
2022/05/25 00:01:02;;;;;;;17.40;8.10;;;;;;;16.46;53.28;98525.47;105983;1276;96304;-66
2022/05/25 00:03:34;;;;;;;14.70;7.20;;;;;;;16.41;53.24;98522.02;105987;1276;108409;-65
2022/05/25 00:06:06;;;;;;;17.00;7.50;;;;;;;16.34;53.37;98523.23;105900;1276;97960;-66
2022/05/25 00:08:41;;;;;;;14.80;7.00;;;;;;;16.33;53.60;98527.68;105874;1276;97764;-67
2022/05/25 00:11:10;;;;;;;16.30;6.80;;;;;;;16.35;53.80;98523.88;105943;1276;111454;-65
2022/05/25 00:13:39;;;;;;;20.10;7.00;;;;;;;16.39;53.78;98527.82;106024;1276;98452;-68
2022/05/25 00:16:07;;;;;;;21.90;7.60;;;;;;;16.42;53.96;98531.66;105943;1276;108714;-66
2022/05/25 00:18:36;;;;;;;17.80;7.50;;;;;;;16.44;53.92;98532.48;105833;1276;98060;-65
2022/05/25 00:21:04;;;;;;;15.00;6.20;;;;;;;16.45;53.90;98529.46;105926;1276;95210;-67
2022/05/25 00:23:32;;;;;;;14.50;6.60;;;;;;;16.46;53.91;98524.02;105816;1276;112530;-69
2022/05/25 00:26:01;;;;;;;15.50;6.00;;;;;;;16.44;53.99;98524.14;105779;1276;97981;-68
2022/05/25 00:28:29;;;;;;;14.70;6.50;;;;;;;16.46;54.08;98522.45;105730;1276;108736;-67
2022/05/25 00:30:58;;;;;;;14.30;6.10;;;;;;;16.47;54.07;98520.48;105736;1276;97970;-64
2022/05/25 00:33:26;;;;;;;13.60;6.20;;;;;;;16.48;54.19;98528.92;105780;1277;97890;-66
2022/05/25 00:35:54;;;;;;;13.70;6.50;;;;;;;16.49;54.21;98528.63;105781;1277;112074;-66
2022/05/25 00:38:22;;;;;;;16.80;7.00;;;;;;;16.49;54.28;98526.70;105749;1278;95233;-67
2022/05/25 00:40:50;;;;;;;15.30;6.30;;;;;;;16.50;54.22;98524.66;105755;1276;109515;-65
2022/05/25 00:43:18;;;;;;;17.40;6.50;;;;;;;16.50;54.31;98521.98;105777;1276;97935;-64
2022/05/25 00:46:09;;;;;;;18.00;6.90;;;;;;;16.49;54.37;98525.14;105803;1276;97951;-65
2022/05/25 00:48:39;;;;;;;14.30;6.20;;;;;;;16.43;54.41;98523.27;105741;1277;111785;-64
2022/05/25 00:51:15;;;;;;;17.40;6.50;;;;;;;16.41;54.53;98526.35;105766;1276;97905;-64
2022/05/25 00:53:47;;;;;;;12.20;5.90;;;;;;;16.39;54.53;98526.90;105745;1276;107789;-65
2022/05/25 00:56:19;;;;;;;13.40;6.60;;;;;;;16.35;54.73;98532.30;105782;1276;97913;-66
2022/05/25 00:59:03;;;;;;;15.00;5.80;;;;;;;16.35;54.88;98534.92;105809;1276;96602;-65
2022/05/25 01:01:32;;;;;;;14.10;6.60;;;;;;;16.34;54.83;98536.67;105950;1277;111303;-66
2022/05/25 01:04:01;;;;;;;19.10;6.70;;;;;;;16.31;54.73;98533.21;105741;1276;97954;-65
2022/05/25 01:06:41;;;;;;;14.40;6.60;;;;;;;16.28;54.84;98536.94;105956;1276;107492;-65
2022/05/25 01:09:31;;;;;;;13.40;6.40;;;;;;;16.28;55.04;98539.19;105876;1276;97880;-65
2022/05/25 01:12:29;;;;;;;15.00;6.80;;;;;;;16.26;55.06;98539.69;105926;1276;97928;-65
2022/05/25 01:15:16;;;;;;;17.30;7.30;;;;;;;16.16;55.08;98536.04;105843;1276;112082;-65
2022/05/25 01:17:58;;;;;;;17.10;7.50;;;;;;;16.06;54.80;98533.89;105990;1276;97916;-65
2022/05/25 01:20:45;;;;;;;15.90;7.70;;;;;;;15.95;55.05;98531.78;105789;1276;108312;-65
2022/05/25 01:23:51;;;;;;;17.80;7.30;;;;;;;15.85;55.17;98533.59;105771;1276;97891;-62
2022/05/25 01:26:29;;;;;;;19.40;8.00;;;;;;;15.78;55.40;98535.69;105811;1276;97889;-65
2022/05/25 01:29:26;;;;;;;17.50;8.30;;;;;;;15.76;55.63;98533.52;105892;1276;111473;-64
2022/05/25 01:32:14;;;;;;;17.10;7.90;;;;;;;15.78;55.72;98529.41;105804;1276;95205;-67
2022/05/25 01:35:00;;;;;;;17.40;8.40;;;;;;;15.75;55.57;98528.61;105935;1276;108427;-65
2022/05/25 01:38:08;;;;;;;18.90;7.80;;;;;;;15.71;55.90;98527.05;106057;1276;97966;-64
2022/05/25 01:40:36;;;;;;;16.40;7.90;;;;;;;15.70;55.72;98530.03;105968;1276;95277;-65
2022/05/25 01:43:31;;;;;;;18.70;8.70;;;;;;;15.64;55.91;98527.48;105817;1276;111612;-66
2022/05/25 01:46:09;;;;;;;21.70;9.70;;;;;;;15.58;56.17;98527.14;105860;1276;97937;-67
2022/05/25 01:48:41;;;;;;;19.50;9.80;;;;;;;15.42;56.36;98525.92;105892;1276;107655;-65
2022/05/25 01:51:19;;;;;;;19.70;9.30;;;;;;;15.27;56.42;98532.55;105903;1276;96583;-65
2022/05/25 01:53:54;;;;;;;20.30;9.40;;;;;;;15.23;56.67;98533.58;105960;1276;97877;-66
2022/05/25 01:56:26;;;;;;;18.70;8.80;;;;;;;15.23;56.64;98533.55;105951;1276;111268;-66
2022/05/25 01:58:59;;;;;;;18.20;8.40;;;;;;;15.28;56.80;98540.92;105845;1276;97900;-66
2022/05/25 02:01:27;;;;;;;;;;;;;;;15.34;56.85;98548.84;105915;1278;108376;-64
2022/05/25 02:07:15;;;;;;;15.80;7.00;;;;;;;15.42;57.08;98557.71;105888;1278;97897;-65
2022/05/25 02:10:17;;;;;;;18.00;8.40;;;;;;;15.46;57.12;98556.20;105852;1278;111784;-66
2022/05/25 02:13:07;;;;;;;16.70;7.50;;;;;;;15.52;57.18;98557.58;105921;1277;97712;-66
2022/05/25 02:15:48;;;;;;;14.10;7.10;;;;;;;15.56;57.19;98560.27;105885;1277;108396;-66
2022/05/25 02:18:32;;;;;;;15.40;7.50;;;;;;;15.60;57.25;98563.02;105848;1277;98034;-68
2022/05/25 02:21:10;;;;;;;15.90;7.20;;;;;;;15.63;57.34;98568.27;105949;1277;95386;-70
2022/05/25 02:23:54;;;;;;;18.60;7.70;;;;;;;15.67;57.27;98572.74;105897;1278;112025;-65
2022/05/25 02:26:29;;;;;;;14.90;7.00;;;;;;;15.70;57.36;98575.30;105845;1278;96446;-65
2022/05/25 02:29:23;;;;;;;15.00;7.00;;;;;;;15.70;57.42;98575.20;105856;1277;107536;-65
2022/05/25 02:32:00;;;;;;;15.30;6.90;;;;;;;15.72;57.57;98582.36;105930;1277;97997;-65
2022/05/25 02:34:31;;;;;;;16.10;7.20;;;;;;;15.74;57.60;98580.06;105965;1276;97874;-65
2022/05/25 02:37:02;;;;;;;16.80;7.80;;;;;;;15.74;57.54;98579.79;105890;1276;111319;-66
2022/05/25 02:39:32;;;;;;;20.70;8.70;;;;;;;15.68;57.54;98582.06;105857;1276;99346;-67
2022/05/25 02:42:00;;;;;;;15.90;7.50;;;;;;;15.55;57.53;98580.48;105920;1276;108147;-66
2022/05/25 02:44:29;;;;;;;17.50;7.40;;;;;;;15.49;57.69;98588.45;105957;1276;98676;-66
2022/05/25 02:46:58;;;;;;;19.40;7.50;;;;;;;15.49;57.88;98595.59;105968;1276;95286;-66
2022/05/25 02:49:27;;;;;;;17.00;8.60;;;;;;;15.54;57.89;98599.58;105948;1276;110985;-68
2022/05/25 02:51:55;;;;;;;16.20;7.80;;;;;;;15.57;58.05;98603.87;105824;1276;98009;-67
2022/05/25 02:54:24;;;;;;;18.40;7.90;;;;;;;15.60;58.02;98605.60;105917;1276;108223;-66
2022/05/25 02:56:52;;;;;;;18.50;8.10;;;;;;;15.62;58.14;98607.90;105931;1275;97974;-66
2022/05/25 02:59:21;;;;;;;15.90;7.60;;;;;;;15.63;58.22;98605.56;106015;1276;97985;-66
2022/05/25 03:01:50;;;;;;;17.50;8.00;;;;;;;15.66;58.29;98601.60;105882;1276;111980;-66
2022/05/25 03:04:19;;;;;;;16.30;7.60;;;;;;;15.68;58.33;98604.59;105809;1276;97901;-66
2022/05/25 03:06:47;;;;;;;14.50;7.40;;;;;;;15.70;58.35;98603.65;105857;1276;108345;-67
2022/05/25 03:09:15;;;;;;;19.40;8.80;;;;;;;15.72;58.40;98602.90;105815;1276;98007;-66
2022/05/25 03:11:45;;;;;;;18.40;8.30;;;;;;;15.74;58.42;98604.46;105926;1277;97000;-67
2022/05/25 03:14:14;;;;;;;19.40;8.90;;;;;;;15.75;58.52;98607.05;105956;1276;112054;-67
2022/05/25 03:16:42;;;;;;;17.00;8.50;;;;;;;15.75;58.64;98598.85;105875;1276;95819;-66
2022/05/25 03:19:10;;;;;;;18.30;8.80;;;;;;;15.75;58.57;98603.50;105817;1276;106723;-68
2022/05/25 03:21:38;;;;;;;17.20;8.70;;;;;;;15.75;58.75;98606.15;105809;1276;97982;-66
2022/05/25 03:24:07;;;;;;;17.50;8.50;;;;;;;15.76;58.77;98608.03;105816;1276;98545;-67
2022/05/25 03:26:37;;;;;;;18.70;8.80;;;;;;;15.78;58.70;98606.04;105818;1276;111948;-66
2022/05/25 03:29:08;;;;;;;16.30;8.10;;;;;;;15.82;58.83;98611.94;105834;1276;95345;-68
2022/05/25 03:31:40;;;;;;;19.40;8.90;;;;;;;15.85;58.88;98608.97;105839;1276;107705;-67
2022/05/25 03:34:08;;;;;;;17.50;8.40;;;;;;;15.87;58.90;98612.67;105821;1276;97973;-64
2022/05/25 03:36:36;;;;;;;17.90;8.10;;;;;;;15.90;58.96;98614.02;105867;1276;98586;-66
2022/05/25 03:39:05;;;;;;;16.30;8.00;;;;;;;15.92;58.99;98614.01;105792;1276;112003;-67
2022/05/25 03:41:33;;;;;;;17.30;8.50;;;;;;;15.93;59.04;98614.71;105808;1277;97082;-66
2022/05/25 03:44:02;;;;;;;17.50;8.50;;;;;;;15.96;59.17;98612.52;105800;1277;108276;-65
2022/05/25 03:46:32;;;;;;;16.40;7.90;;;;;;;15.98;59.12;98613.55;105195;1276;815307;-67
2022/05/25 03:49:01;;;;;;;18.00;8.30;;;;;;;16.00;59.07;98614.83;105815;1276;96389;-67
2022/05/25 03:51:29;;;;;;;18.60;8.60;;;;;;;16.02;59.19;98613.02;105800;1276;111991;-67
2022/05/25 03:53:58;;;;;;;16.30;8.40;;;;;;;16.04;59.20;98614.16;105882;1276;96300;-66
2022/05/25 03:56:26;;;;;;;18.90;9.00;;;;;;;16.07;59.24;98617.48;105804;1276;108227;-66
2022/05/25 03:58:54;;;;;;;17.70;9.10;;;;;;;16.09;59.31;98621.27;105837;1276;97851;-66
2022/05/25 04:01:22;;;;;;;17.40;8.30;;;;;;;16.11;59.32;98617.60;105819;1276;97831;-66
2022/05/25 04:03:51;;;;;;;19.60;8.80;;;;;;;16.15;59.39;98623.50;105880;1276;112032;-65
2022/05/25 04:06:19;;;;;;;17.00;8.10;;;;;;;16.17;59.40;98624.66;105984;1276;97974;-66
2022/05/25 04:08:47;;;;;;;19.00;8.20;;;;;;;16.20;59.41;98627.09;105826;1276;108456;-70
2022/05/25 04:11:17;;;;;;;17.90;8.10;;;;;;;16.23;59.50;98628.38;105935;1276;97876;-68
2022/05/25 04:13:45;;;;;;;19.60;8.20;;;;;;;16.26;59.49;98632.23;106023;1276;99377;-67
2022/05/25 04:16:14;;;;;;;17.70;8.40;;;;;;;16.29;59.60;98629.44;105849;1277;111859;-69
2022/05/25 04:18:43;;;;;;;16.10;8.10;;;;;;;16.32;59.59;98628.89;105992;1276;97887;-69
2022/05/25 04:21:11;;;;;;;18.60;9.00;;;;;;;16.35;59.60;98628.17;105993;1276;107328;-69
2022/05/25 04:23:39;;;;;;;17.20;8.10;;;;;;;16.38;59.61;98626.11;106036;1276;96631;-67
2022/05/25 04:26:09;;;;;;;16.80;7.70;;;;;;;16.43;59.68;98625.85;105915;1277;97961;-68
2022/05/25 04:28:37;;;;;;;18.20;8.80;;;;;;;16.47;59.69;98621.57;105870;1277;111782;-66
2022/05/25 04:31:08;;;;;;;17.10;7.60;;;;;;;16.54;59.78;98620.91;105848;1277;96442;-66
2022/05/25 04:33:39;;;;;;;15.40;7.30;;;;;;;16.59;59.90;98615.84;105792;1277;108281;-65
2022/05/25 04:36:08;;;;;;;19.20;8.30;;;;;;;16.66;59.97;98616.23;105785;1277;97916;-66
2022/05/25 04:38:36;;;;;;;18.90;8.70;;;;;;;16.72;59.95;98617.23;105813;1276;97863;-66
2022/05/25 04:41:05;;;;;;;17.60;8.50;;;;;;;16.79;60.00;98615.24;105831;1276;111995;-65
2022/05/25 04:43:34;;;;;;;18.60;8.30;;;;;;;16.87;60.19;98615.13;105860;1276;97892;-65
2022/05/25 04:46:08;;;;;;;17.50;8.20;;;;;;;16.93;60.12;98611.79;106009;1276;108631;-63
2022/05/25 04:48:38;;;;;;;16.30;8.10;;;;;;;16.98;60.09;98605.35;105970;1276;97895;-67
2022/05/25 04:51:06;;;;;;;18.70;9.10;;;;;;;17.04;60.02;98604.89;105949;1276;97860;-66
2022/05/25 04:53:35;;;;;;;17.80;8.30;;;;;;;17.10;60.06;98600.66;105968;1276;111409;-66
2022/05/25 04:58:52;;;;;;;19.80;8.90;;;;;;;17.23;60.27;98593.20;105914;1276;108352;-66
2022/05/25 05:01:22;;;;;;;19.60;9.30;;;;;;;17.29;60.30;98597.05;105960;1276;97852;-66
2022/05/25 05:03:54;;;;;;;19.90;10.00;;;;;;;17.33;60.15;98594.96;105999;1276;97860;-65
2022/05/25 05:06:23;;;;;;;23.20;11.00;;;;;;;17.37;60.29;98592.20;105928;1277;111535;-65
2022/05/25 05:08:51;;;;;;;24.10;11.80;;;;;;;17.41;60.32;98592.52;105919;1277;97724;-65
2022/05/25 05:11:19;;;;;;;19.60;10.40;;;;;;;17.46;60.34;98600.98;105919;1277;108452;-66
2022/05/25 05:13:48;;;;;;;20.80;10.50;;;;;;;17.51;60.27;98605.80;105955;1276;97986;-67
2022/05/25 05:16:18;;;;;;;20.20;10.20;;;;;;;17.56;60.39;98602.54;105997;1276;97972;-65
2022/05/25 05:18:47;;;;;;;23.10;10.90;;;;;;;17.62;60.46;98604.64;106055;1276;110446;-66
2022/05/25 05:21:15;;;;;;;20.20;10.20;;;;;;;17.66;60.56;98609.52;105873;1276;97955;-66
2022/05/25 05:23:44;;;;;;;21.70;10.90;;;;;;;17.72;60.48;98619.84;106024;1275;108406;-67
2022/05/25 05:26:13;;;;;;;22.10;11.00;;;;;;;17.78;60.29;98624.60;105972;1276;97999;-67
2022/05/25 05:28:43;;;;;;;22.30;11.20;;;;;;;17.84;60.56;98626.46;106057;1276;97872;-63
2022/05/25 05:31:14;;;;;;;20.40;10.80;;;;;;;17.90;60.59;98626.86;106010;1277;111427;-67
2022/05/25 05:33:43;;;;;;;21.90;11.50;;;;;;;17.96;60.57;98627.48;105919;1277;97970;-65
2022/05/25 05:36:25;;;;;;;21.30;10.60;;;;;;;18.02;60.50;98631.64;105895;1275;108366;-65
2022/05/25 05:39:01;;;;;;;20.10;10.30;;;;;;;18.08;60.72;98628.30;105905;1276;97891;-67
2022/05/25 05:41:37;;;;;;;20.70;11.10;;;;;;;18.15;60.47;98631.65;105981;1277;95253;-66
2022/05/25 05:44:09;;;;;;;20.00;10.10;;;;;;;18.19;60.71;98630.73;105847;1276;112089;-66
2022/05/25 05:46:41;;;;;;;24.00;10.90;;;;;;;18.19;60.63;98637.90;105909;1276;97901;-66
2022/05/25 05:49:13;;;;;;;20.70;10.80;;;;;;;18.17;60.46;98639.48;105878;1276;107772;-65
2022/05/25 05:51:42;;;;;;;21.80;11.00;;;;;;;18.18;60.51;98638.85;105879;1276;97957;-66
2022/05/25 05:54:13;;;;;;;21.40;10.50;;;;;;;18.21;60.62;98635.34;105907;1276;97827;-67
2022/05/25 05:56:43;;;;;;;23.20;11.00;;;;;;;18.23;60.58;98638.84;105995;1277;111431;-67
2022/05/25 05:59:11;;;;;;;20.70;10.50;;;;;;;18.25;60.61;98642.20;105963;1277;97875;-67
2022/05/25 06:01:39;;;;;;;22.10;10.20;;;;;;;18.28;60.61;98640.65;105943;1276;108396;-67
2022/05/25 06:04:10;;;;;;;23.70;10.00;;;;;;;18.30;60.59;98638.79;105930;1276;97949;-66
2022/05/25 06:06:41;;;;;;;19.60;9.90;;;;;;;18.34;60.72;98643.59;105909;1277;97880;-66
2022/05/25 06:09:10;;;;;;;20.30;10.20;;;;;;;18.35;60.66;98646.10;105902;1276;111900;-66
2022/05/25 06:11:42;;;;;;;19.50;9.40;;;;;;;18.39;60.63;98646.47;105871;1275;95311;-66
2022/05/25 06:14:11;;;;;;;22.40;10.70;;;;;;;18.41;60.78;98646.36;105860;1276;107697;-67
2022/05/25 06:19:27;;;;;;;21.00;10.50;;;;;;;18.48;60.94;98641.70;105936;1276;96598;-63
2022/05/25 06:22:14;;;;;;;22.40;10.80;;;;;;;18.51;60.90;98633.11;105898;1276;112028;-64
2022/05/25 06:24:46;;;;;;;19.50;10.50;;;;;;;18.52;60.85;98638.29;106000;1276;98018;-66
2022/05/25 06:27:16;;;;;;;18.50;10.10;;;;;;;18.54;60.89;98632.23;105993;1276;107764;-66
2022/05/25 06:29:47;;;;;;;21.40;10.90;;;;;;;18.56;60.79;98629.45;105922;1276;95274;-65
2022/05/25 06:32:21;;;;;;;21.20;10.90;;;;;;;18.58;60.96;98625.04;105964;1276;98510;-68
2022/05/25 06:34:50;;;;;;;25.10;11.80;;;;;;;18.61;60.80;98618.46;106040;1276;111339;-66
2022/05/25 06:37:23;;;;;;;22.50;10.70;;;;;;;18.60;60.79;98612.98;106059;1276;97871;-67
2022/05/25 06:39:52;;;;;;;22.00;11.40;;;;;;;18.59;60.78;98609.73;105989;1276;107750;-68
2022/05/25 06:42:22;;;;;;;19.90;10.40;;;;;;;18.56;60.80;98608.61;105974;1276;97979;-69
2022/05/25 06:44:50;;;;;;;19.50;10.10;;;;;;;18.56;61.00;98608.07;105921;1277;96419;-66
2022/05/25 06:47:20;;;;;;;21.20;10.90;;;;;;;18.61;60.84;98610.79;105813;1276;112507;-65
2022/05/25 06:49:53;;;;;;;19.30;10.00;;;;;;;18.66;61.06;98611.42;105926;1276;96365;-66
2022/05/25 06:52:23;;;;;;;21.30;10.30;;;;;;;18.71;61.00;98614.98;105820;1276;107745;-65
2022/05/25 06:54:54;;;;;;;19.10;9.40;;;;;;;18.77;60.98;98614.27;105959;1276;97992;-65
2022/05/25 06:57:25;;;;;;;20.70;10.10;;;;;;;18.86;61.07;98614.08;106060;1277;97884;-66
2022/05/25 06:59:54;;;;;;;20.40;9.30;;;;;;;18.92;61.20;98611.89;105997;1277;111482;-66
2022/05/25 07:02:25;;;;;;;18.90;9.00;;;;;;;19.01;61.15;98611.96;105986;1277;96328;-67
2022/05/25 07:04:55;;;;;;;20.40;10.50;;;;;;;19.12;61.14;98613.74;105923;1276;108366;-66
2022/05/25 07:07:24;;;;;;;17.10;9.00;;;;;;;19.31;61.08;98614.07;105953;1276;97954;-68
2022/05/25 07:09:54;;;;;;;19.00;9.10;;;;;;;19.46;61.05;98611.80;105965;1277;97892;-69
2022/05/25 07:12:22;;;;;;;20.70;9.70;;;;;;;19.69;61.16;98610.60;105919;1276;111981;-67
2022/05/25 07:14:52;;;;;;;20.00;9.50;;;;;;;19.90;61.09;98607.02;105916;1276;96516;-67
2022/05/25 07:17:20;;;;;;;19.70;8.80;;;;;;;20.14;61.12;98602.83;105878;1276;108394;-66
2022/05/25 07:19:48;;;;;;;21.30;8.80;;;;;;;20.36;61.10;98601.05;105888;1276;98005;-66
2022/05/25 07:22:18;;;;;;;18.60;8.80;;;;;;;20.51;60.85;98600.52;105905;1276;97892;-66
2022/05/25 07:24:48;;;;;;;18.60;8.00;;;;;;;20.64;60.66;98606.66;105902;1276;112038;-65
2022/05/25 07:27:16;;;;;;;20.80;8.90;;;;;;;20.75;60.74;98605.31;105899;1276;97982;-65
2022/05/25 07:29:45;;;;;;;18.00;8.20;;;;;;;20.92;60.74;98609.41;105884;1276;108122;-65
2022/05/25 07:32:16;;;;;;;19.00;7.90;;;;;;;21.10;60.72;98603.04;105882;1276;97971;-66
2022/05/25 07:34:55;;;;;;;15.90;7.30;;;;;;;21.30;60.68;98600.23;105876;1276;98000;-63
2022/05/25 07:37:37;;;;;;;18.90;8.20;;;;;;;21.48;60.37;98600.70;105850;1276;111847;-64
2022/05/25 07:40:12;;;;;;;18.70;8.30;;;;;;;21.51;60.38;98604.40;105873;1276;97976;-65
2022/05/25 07:42:49;;;;;;;19.00;9.10;;;;;;;21.56;60.25;98608.36;105817;1276;107448;-65
2022/05/25 07:45:18;;;;;;;17.80;7.80;;;;;;;21.68;60.05;98608.10;105678;1277;98101;-65
2022/05/25 07:47:46;;;;;;;17.40;7.70;;;;;;;21.99;59.86;98604.10;105881;1276;97911;-65
2022/05/25 07:50:15;;;;;;;18.80;8.30;;;;;;;22.39;59.74;98604.95;105945;1276;112445;-66
2022/05/25 07:52:43;;;;;;;17.60;8.40;;;;;;;23.38;58.67;98601.74;105970;1276;95995;-65
2022/05/25 07:55:12;;;;;;;14.20;6.90;;;;;;;24.53;58.26;98601.60;105922;1276;108121;-65
2022/05/25 07:57:41;;;;;;;17.70;8.30;;;;;;;25.76;57.88;98595.88;106033;1277;98059;-65
2022/05/25 08:00:13;;;;;;;17.50;6.50;;;;;;;26.82;57.56;98591.80;106112;1276;96513;-66
2022/05/25 08:05:49;;;;;;;14.10;5.60;;;;;;;28.21;57.32;98586.23;105978;1278;97973;-66
2022/05/25 08:08:22;;;;;;;13.40;5.60;;;;;;;28.57;57.73;98583.39;105975;1276;107747;-68
2022/05/25 08:11:09;;;;;;;12.70;5.20;;;;;;;28.80;56.43;98584.70;105875;1276;97959;-67
2022/05/25 08:13:46;;;;;;;15.20;5.40;;;;;;;29.06;56.53;98580.38;105869;1277;97958;-65
2022/05/25 08:16:14;;;;;;;9.60;4.70;;;;;;;29.58;56.44;98576.17;105938;1276;112261;-69
2022/05/25 08:18:44;;;;;;;15.50;5.60;;;;;;;29.91;56.17;98574.44;105848;1277;98525;-68
2022/05/25 08:21:14;;;;;;;13.00;5.60;;;;;;;30.03;56.09;98576.02;105928;1276;108817;-67
2022/05/25 08:24:07;;;;;;;16.30;5.30;;;;;;;29.95;55.49;98574.95;105869;1276;96381;-69
2022/05/25 08:26:38;;;;;;;9.40;4.50;;;;;;;29.99;55.66;98576.29;105900;1277;96247;-66
2022/05/25 08:29:07;;;;;;;10.90;4.70;;;;;;;30.08;55.09;98573.70;105907;1276;111828;-65
2022/05/25 08:31:35;;;;;;;11.20;4.40;;;;;;;29.69;54.36;98578.66;106086;1276;98479;-67
2022/05/25 08:34:07;;;;;;;10.30;4.70;;;;;;;29.10;54.47;98582.98;106028;1277;108366;-66
2022/05/25 08:36:37;;;;;;;15.50;4.70;;;;;;;28.59;54.17;98586.71;105975;1276;97092;-67
2022/05/25 08:39:06;;;;;;;9.90;4.70;;;;;;;27.89;53.28;98583.07;106089;1277;97886;-67
2022/05/25 08:41:42;;;;;;;10.60;4.80;;;;;;;27.55;53.79;98578.09;106055;1276;111720;-66
2022/05/25 08:44:14;;;;;;;10.40;4.60;;;;;;;27.69;53.27;98576.69;106102;1276;98972;-66
2022/05/25 08:46:42;;;;;;;11.10;4.70;;;;;;;27.94;52.60;98575.64;106025;1276;108528;-67
2022/05/25 08:49:15;;;;;;;11.00;4.70;;;;;;;28.40;52.46;98576.79;105999;1276;97927;-67
2022/05/25 08:51:51;;;;;;;8.80;4.80;;;;;;;28.62;52.31;98580.48;106052;1277;98420;-66
2022/05/25 08:54:24;;;;;;;10.30;4.60;;;;;;;28.90;52.03;98582.66;105986;1276;111164;-67
2022/05/25 08:57:14;;;;;;;10.20;5.40;;;;;;;29.40;51.57;98579.80;105913;1276;98357;-67
2022/05/25 08:59:49;;;;;;;11.70;4.80;;;;;;;29.98;50.99;98578.63;105907;1277;108201;-67
2022/05/25 09:02:56;;;;;;;9.20;4.60;;;;;;;30.33;50.95;98579.19;105937;1276;97334;-66
2022/05/25 09:06:09;;;;;;;15.80;4.80;;;;;;;30.02;50.84;98579.83;105697;1278;97886;-66
2022/05/25 09:09:00;;;;;;;11.00;4.80;;;;;;;29.64;50.76;98580.77;105755;1276;113211;-65
2022/05/25 09:11:43;;;;;;;11.60;5.10;;;;;;;29.24;50.39;98576.17;105940;1276;97883;-66
2022/05/25 09:14:20;;;;;;;;;;;;;;;28.87;50.26;98574.37;105920;1276;107763;-65
2022/05/25 09:16:54;;;;;;;11.90;5.00;;;;;;;28.43;49.91;98574.73;105989;1276;97874;-65
2022/05/25 09:19:38;;;;;;;14.30;4.90;;;;;;;28.16;49.70;98571.14;105879;1276;98367;-66
2022/05/25 09:22:11;;;;;;;12.40;5.20;;;;;;;28.05;49.36;98578.45;105883;1276;111717;-67
2022/05/25 09:24:40;;;;;;;12.80;4.50;;;;;;;27.99;49.16;98575.41;105921;1276;98377;-66
2022/05/25 09:27:12;;;;;;;12.10;5.20;;;;;;;27.87;48.88;98571.38;105909;1277;108508;-67
2022/05/25 09:29:41;;;;;;;13.50;4.40;;;;;;;27.60;48.55;98572.44;105974;1277;97999;-66
2022/05/25 09:32:38;;;;;;;10.90;4.10;;;;;;;27.38;48.59;98566.48;105959;1276;95281;-67
2022/05/25 09:35:32;;;;;;;9.00;4.30;;;;;;;27.35;47.83;98564.30;105913;1276;111752;-68
2022/05/25 09:38:08;;;;;;;9.20;4.40;;;;;;;27.16;47.61;98564.84;106043;1276;96666;-67
2022/05/25 09:40:52;;;;;;;16.30;4.20;;;;;;;27.02;47.53;98563.11;105943;1277;107838;-67
2022/05/25 09:43:24;;;;;;;8.20;3.90;;;;;;;27.10;47.50;98568.61;105900;1277;97872;-67
2022/05/25 09:46:06;;;;;;;7.90;3.60;;;;;;;27.24;47.33;98571.05;105978;1276;96373;-67
2022/05/25 09:48:55;;;;;;;6.40;3.10;;;;;;;27.28;46.99;98572.69;105977;1276;112420;-66
2022/05/25 09:51:46;;;;;;;8.50;3.20;;;;;;;27.16;46.63;98567.14;106050;1275;98137;-67
2022/05/25 09:54:37;;;;;;;6.30;3.40;;;;;;;27.11;46.60;98564.98;105934;1276;108249;-68
2022/05/25 09:57:36;;;;;;;11.20;3.40;;;;;;;26.97;46.03;98555.44;106026;1277;98008;-66
2022/05/25 10:00:28;;;;;;;7.70;3.20;;;;;;;26.69;45.64;98547.61;105915;1276;97876;-66
2022/05/25 10:03:02;;;;;;;5.40;3.10;;;;;;;26.18;45.57;98546.73;105772;1276;111842;-65
2022/05/25 10:05:52;;;;;;;8.70;3.20;;;;;;;25.96;45.49;98547.56;105957;1277;98359;-66
2022/05/25 10:08:28;;;;;;;10.80;3.60;;;;;;;26.00;45.71;98545.13;105942;1276;108402;-66
2022/05/25 10:11:29;;;;;;;8.70;3.50;;;;;;;26.12;45.47;98542.04;105998;1276;97982;-66
2022/05/25 10:14:16;;;;;;;13.00;4.50;;;;;;;26.32;45.53;98536.58;105986;1276;97867;-66
2022/05/25 10:16:46;;;;;;;5.60;3.20;;;;;;;26.53;45.46;98530.48;106060;1276;112055;-64
2022/05/25 10:19:21;;;;;;;10.90;4.30;;;;;;;26.68;45.16;98525.98;105992;1276;98011;-66
2022/05/25 10:21:59;;;;;;;7.00;2.80;;;;;;;26.83;45.05;98514.84;105883;1276;108425;-65
2022/05/25 10:24:36;;;;;;;6.10;3.00;;;;;;;26.98;44.97;98517.61;105840;1276;98032;-66
2022/05/25 10:27:19;;;;;;;5.20;3.10;;;;;;;27.06;44.73;98513.98;105851;1276;95171;-66
2022/05/25 10:39:24;;;;;;;6.70;2.90;;;;;;;27.10;44.18;98506.22;105548;1276;98242;-70
2022/05/25 10:42:18;;;;;;;11.70;2.80;;;;;;;27.08;44.25;98508.57;105900;1276;96580;-68
2022/05/25 10:44:49;;;;;;;;;;;;;;;27.07;43.90;98505.73;105938;1276;112058;-69
2022/05/25 10:47:54;;;;;;;9.00;2.90;;;;;;;27.04;43.64;98504.00;105860;1277;95615;-69
2022/05/25 10:50:25;;;;;;;7.10;3.10;;;;;;;26.98;43.67;98506.69;105531;1277;108620;-67
2022/05/25 10:53:36;;;;;;;7.30;2.80;;;;;;;26.99;43.65;98507.09;105815;1277;97988;-67
2022/05/25 10:56:36;;;;;;;6.20;2.80;;;;;;;27.07;43.79;98512.11;105465;1277;95436;-66
2022/05/25 10:59:12;;;;;;;6.50;2.90;;;;;;;27.11;43.35;98508.05;105697;1275;112062;-66
2022/05/25 11:02:12;;;;;;;10.40;3.00;;;;;;;27.07;43.16;98503.20;105821;1277;97879;-67
2022/05/25 11:04:43;;;;;;;9.30;2.70;;;;;;;27.00;42.90;98502.10;105764;1277;108254;-66
2022/05/25 11:07:24;;;;;;;5.50;2.90;;;;;;;26.98;42.83;98499.65;105876;1277;97917;-66
2022/05/25 11:10:16;;;;;;;7.90;2.70;;;;;;;26.99;42.45;98503.27;105869;1277;98008;-66
2022/05/25 11:13:18;;;;;;;4.90;2.40;;;;;;;26.97;42.42;98498.91;105782;1277;112165;-66
2022/05/25 11:16:13;;;;;;;7.30;2.80;;;;;;;26.92;42.61;98497.13;105932;1277;97901;-66
2022/05/25 11:19:00;;;;;;;5.80;2.70;;;;;;;26.88;42.04;98492.45;105882;1275;107613;-64
2022/05/25 11:21:49;;;;;;;7.30;2.90;;;;;;;26.72;41.99;98490.97;105862;1277;98982;-66
2022/05/25 11:24:58;;;;;;;3.10;2.30;;;;;;;26.61;41.99;98488.55;105867;1277;95353;-64
2022/05/25 11:27:51;;;;;;;9.40;3.20;;;;;;;26.57;41.83;98488.98;105888;1277;112441;-65
2022/05/25 11:30:32;;;;;;;8.90;3.30;;;;;;;26.55;42.05;98486.78;105961;1274;97900;-65
2022/05/25 11:33:03;;;;;;;4.40;2.90;;;;;;;26.56;41.93;98484.21;105869;1277;108344;-66
2022/05/25 11:35:56;;;;;;;6.30;3.10;;;;;;;26.55;41.56;98485.70;105872;1277;97483;-66
2022/05/25 11:38:39;;;;;;;6.60;2.90;;;;;;;26.38;41.16;98479.33;106011;1277;98005;-66
2022/05/25 11:41:27;;;;;;;;;;;;;;;26.28;41.33;98475.84;105973;1277;111912;-66
2022/05/25 11:44:14;;;;;;;8.00;3.10;;;;;;;26.26;41.18;98476.94;105980;1277;98145;-67
2022/05/25 11:46:48;;;;;;;7.60;3.10;;;;;;;26.20;41.30;98465.38;105982;1277;108357;-66
2022/05/25 11:50:09;;;;;;;9.60;3.50;;;;;;;26.13;40.90;98462.17;105981;1277;97961;-67
2022/05/25 11:52:53;;;;;;;9.90;3.80;;;;;;;26.12;40.67;98461.00;105602;1277;96556;-65
2022/05/25 11:55:30;;;;;;;6.40;2.90;;;;;;;26.08;40.74;98460.05;105858;1279;111305;-66
2022/05/25 11:58:24;;;;;;;6.60;2.90;;;;;;;26.15;40.97;98460.65;106015;1276;97909;-65
2022/05/25 12:01:10;;;;;;;4.60;2.70;;;;;;;26.29;41.02;98461.74;105959;1277;108430;-65
2022/05/25 12:03:47;;;;;;;6.50;2.80;;;;;;;26.40;40.94;98459.13;105964;1277;95305;-66
2022/05/25 12:06:59;;;;;;;5.10;2.70;;;;;;;26.48;40.81;98458.35;105979;1277;98581;-66
2022/05/25 12:09:49;;;;;;;6.90;2.60;;;;;;;26.51;40.88;98453.64;105251;1284;112066;-64
2022/05/25 12:12:46;;;;;;;3.10;2.10;;;;;;;26.53;40.89;98451.83;106024;1278;95516;-65
2022/05/25 12:15:33;;;;;;;5.60;2.80;;;;;;;26.52;40.62;98457.25;106001;1278;108419;-65